Sharonville, Ohio
Current Conditions -  °F | °C
As of 12:53 PM on Thursday 29 Jan 2015 (Local Time) from KHAO Reporting Station
Overcast Overcast  
Wind Chill: 45°   Ceiling: 3300
Heat Index: 49°   Visibility: 10mi
Dew Point: 37°   Wind: 9mph
Humidity: 64%   Direction: 240°WSW
Pressure: 29.82"   Gusts: 23mph
Location:  39.27°N, 84.41°W
Report Text: KHAO 291753Z AUTO 24008G20KT 10SM OVC033 09/03 A2982 RMK AO2 SLP101 60001 T00940028 10094 20017 57010
Loading
Personal Weather Stations






























Interactive Weather Map New forecast layout! Learn more

10-Day Weather Forecast

Advertisements
Track Severe Weather on mobile